EEL RIVER CAMP CA US current weather conditions

sailwx.info

Wind from 243 at 2 knots gusting 6

Air temperature 16.7° C
Dewpoint 13.2° C

Last reported at 2014-Jul-23 08:28 UTC.
Time now 2014-Jul-23 09:52 UTC

Location: N 40°08' W 123°49'.
View on Google Maps.

See reports from other nearby stations

  
Tides and Currents Weather Stations Pressure Air Temp Water Temp Dewpoint Dewpoint Depression Visibility Wind Speed Wind Dir Waves Ship Positions
date/time (UTC)wind fromknots sea level pressurealtimeterstation pressurevisibilityair tempwater tempwave heightnotes
2014-Jul-23 08:28 243 2 gusting 6 16.7
2014-Jul-23 07:28 16.7
2014-Jul-23 06:28 275 1 gusting 4 17.2
2014-Jul-23 05:28 310 3 gusting 5 17.2
2014-Jul-23 04:28 072 1 gusting 6 17.8
2014-Jul-23 03:28 151 4 gusting 9 18.3
2014-Jul-23 02:28 192 5 gusting 8 19.4
2014-Jul-23 01:28 198 5 gusting 13 20.6
2014-Jul-23 00:28 183 5 gusting 10 21.7
2014-Jul-22 23:28 203 6 gusting 13 22.2
2014-Jul-22 22:28 248 7 gusting 13 20.6
2014-Jul-22 21:28 228 7 gusting 13 22.2
2014-Jul-22 20:28 172 6 gusting 13 23.3
2014-Jul-22 19:28 184 6 gusting 10 25.0
2014-Jul-22 18:28 108 2 gusting 6 23.9
2014-Jul-22 17:28 206 3 gusting 6 20.6
2014-Jul-22 16:28 174 2 gusting 5 20.0
2014-Jul-22 15:28 255 1 gusting 3 16.7
2014-Jul-22 14:28 325 0 gusting 2 15.6
2014-Jul-22 13:28 185 0 gusting 3 15.0
2014-Jul-22 12:28 15.0
2014-Jul-22 11:28 15.0
2014-Jul-22 10:28 14.4
2014-Jul-22 09:28 13.9
2014-Jul-22 08:28 14.4
2014-Jul-22 07:28 353 1 gusting 2 15.6
2014-Jul-22 06:28 236 0 gusting 3 16.1
2014-Jul-22 05:28 057 0 gusting 1 16.7
2014-Jul-22 04:28 023 1 gusting 2 16.7
2014-Jul-22 03:28 282 0 gusting 5 17.2
2014-Jul-22 02:28 259 4 gusting 8 17.8
2014-Jul-22 01:28 261 5 gusting 10 19.4
2014-Jul-22 00:28 219 5 gusting 9 20.6
2014-Jul-21 23:28 184 6 gusting 13 21.1
2014-Jul-21 22:28 213 6 gusting 13 23.9
2014-Jul-21 21:28 224 6 gusting 14 25.0
2014-Jul-21 20:28 211 6 gusting 11 25.6
2014-Jul-21 19:28 201 6 gusting 10 26.1
2014-Jul-21 18:28 157 3 gusting 8 25.0
2014-Jul-21 17:28 049 2 gusting 6 22.2
2014-Jul-21 16:28 117 2 gusting 5 20.0
2014-Jul-21 15:28 138 1 gusting 3 17.2
2014-Jul-21 14:28 275 0 gusting 1 14.4
2014-Jul-21 13:28 273 0 gusting 2 12.8
2014-Jul-21 12:28 12.8
2014-Jul-21 11:28 11.7
2014-Jul-21 10:28 11.7
2014-Jul-21 09:28 332 1 gusting 2 12.8